Time;durP1;ratioP1;P1;durP2;ratioP2;P2;SDS_P1;SDS_P2;PMS_P1;PMS_P2;Temp;Humidity;BMP_temperature;BMP_pressure;BME280_temperature;BME280_humidity;BME280_pressure;Samples;Min_cycle;Max_cycle;Signal;HPM_P1;HPM_P2
2022/05/24 00:02:04;;;;;;;8.00;4.03;;;15.70;99.90;;;;;;5090470;28;20408;-67
2022/05/24 00:04:31;;;;;;;6.60;3.78;;;15.70;99.90;;;;;;5090839;28;20109;-67
2022/05/24 00:06:58;;;;;;;7.47;4.55;;;15.60;99.90;;;;;;5093825;28;20170;-67
2022/05/24 00:09:24;;;;;;;6.57;3.83;;;15.60;99.90;;;;;;5093572;28;20532;-67
2022/05/24 00:11:50;;;;;;;5.63;4.28;;;15.50;99.90;;;;;;5093651;28;20032;-67
2022/05/24 00:15:19;;;;;;;7.47;4.05;;;15.50;99.90;;;;;;5093838;28;20067;-67
2022/05/24 00:17:01;;;;;;;5.38;3.33;;;15.50;99.90;;;;;;5093544;28;20412;-67
2022/05/24 00:19:26;;;;;;;7.22;4.10;;;15.50;99.90;;;;;;5093320;28;20040;-67
2022/05/24 00:21:52;;;;;;;5.60;3.45;;;15.50;99.90;;;;;;5093614;28;20101;-67
2022/05/24 00:24:18;;;;;;;7.55;3.70;;;15.30;99.90;;;;;;5093426;28;20063;-67
2022/05/24 00:26:43;;;;;;;8.95;4.07;;;15.40;99.90;;;;;;5093635;28;20040;-68
2022/05/24 00:29:09;;;;;;;7.40;5.60;;;15.40;99.90;;;;;;5093453;28;20039;-67
2022/05/24 00:31:34;;;;;;;10.20;5.82;;;15.50;99.90;;;;;;5093419;28;20044;-68
2022/05/24 00:34:00;;;;;;;12.25;6.65;;;15.40;99.90;;;;;;5093366;28;20040;-67
2022/05/24 00:36:25;;;;;;;14.30;8.38;;;15.20;99.90;;;;;;5093278;28;20054;-67
2022/05/24 00:38:51;;;;;;;10.90;8.70;;;15.20;99.90;;;;;;5093003;28;20036;-67
2022/05/24 00:41:28;;;;;;;14.32;9.00;;;15.30;99.90;;;;;;5093039;28;20032;-67
2022/05/24 00:44:03;;;;;;;14.77;8.93;;;15.30;99.90;;;;;;5093328;28;20040;-67
2022/05/24 00:46:47;;;;;;;12.48;9.13;;;15.30;99.90;;;;;;5093221;28;20404;-67
2022/05/24 00:49:25;;;;;;;16.92;9.38;;;15.40;99.90;;;;;;5092673;28;20492;-67
2022/05/24 00:52:08;;;;;;;12.38;9.50;;;15.20;99.90;;;;;;5093051;28;20503;-67
2022/05/24 00:54:34;;;;;;;15.25;9.23;;;15.20;99.90;;;;;;5092980;28;20081;-67
2022/05/24 00:57:25;;;;;;;15.30;10.10;;;15.10;99.90;;;;;;5092935;28;20028;-67
2022/05/24 00:59:57;;;;;;;15.25;9.45;;;15.00;99.90;;;;;;5092427;28;20044;-67
2022/05/24 01:02:23;;;;;;;15.80;10.40;;;15.00;99.90;;;;;;5092796;28;20095;-67
2022/05/24 01:04:49;;;;;;;13.80;9.40;;;15.00;99.90;;;;;;5092848;28;20075;-67
2022/05/24 01:07:14;;;;;;;19.08;8.63;;;15.00;99.90;;;;;;5092739;28;20048;-67
2022/05/24 01:09:58;;;;;;;13.70;8.80;;;14.90;99.90;;;;;;5092296;28;20764;-67
2022/05/24 01:12:34;;;;;;;14.68;8.90;;;14.90;99.90;;;;;;5092435;28;20036;-67
2022/05/24 01:15:04;;;;;;;15.23;8.50;;;15.00;99.90;;;;;;5092673;28;20036;-67
2022/05/24 01:17:30;;;;;;;12.88;8.73;;;14.90;99.90;;;;;;5091570;28;20460;-67
2022/05/24 01:19:56;;;;;;;13.93;8.45;;;14.90;99.90;;;;;;5092200;28;20118;-67
2022/05/24 01:22:41;;;;;;;13.07;8.27;;;14.90;99.90;;;;;;5092389;28;20111;-67
2022/05/24 01:25:30;;;;;;;14.35;8.55;;;14.80;99.90;;;;;;5092575;28;20036;-67
2022/05/24 01:27:57;;;;;;;11.48;8.15;;;14.70;99.90;;;;;;5092468;28;20140;-67
2022/05/24 01:30:22;;;;;;;13.32;7.68;;;14.80;99.90;;;;;;5092050;28;20051;-67
2022/05/24 01:38:20;;;;;;;14.10;7.88;;;14.80;99.90;;;;;;5092137;28;20040;-67
2022/05/24 01:40:48;;;;;;;12.50;8.18;;;14.60;99.90;;;;;;5091883;28;20043;-68
2022/05/24 01:43:16;;;;;;;12.25;8.10;;;14.60;99.90;;;;;;5092067;28;20503;-67
2022/05/24 01:45:51;;;;;;;15.93;7.93;;;14.50;99.90;;;;;;5091819;28;20111;-67
2022/05/24 01:48:20;;;;;;;10.40;7.10;;;14.50;99.90;;;;;;5091995;28;20044;-68
2022/05/24 01:50:47;;;;;;;15.13;8.55;;;14.50;99.90;;;;;;5091963;28;20070;-67
2022/05/24 01:53:33;;;;;;;16.23;7.97;;;14.40;99.90;;;;;;5091754;28;20044;-67
2022/05/24 01:56:00;;;;;;;13.52;8.25;;;14.50;99.90;;;;;;5091755;28;20408;-67
2022/05/24 01:58:31;;;;;;;16.85;9.18;;;14.50;99.90;;;;;;5091687;28;20450;-67
2022/05/24 02:01:10;;;;;;;14.00;9.02;;;14.40;99.90;;;;;;5091673;28;20040;-67
2022/05/24 02:03:35;;;;;;;13.50;10.35;;;14.40;99.90;;;;;;5091769;28;20109;-67
2022/05/24 02:06:22;;;;;;;12.48;9.75;;;14.40;99.90;;;;;;5091596;28;20036;-67
2022/05/24 02:08:48;;;;;;;17.25;10.98;;;14.50;99.90;;;;;;5091447;28;20400;-67
2022/05/24 02:11:17;;;;;;;19.88;12.05;;;14.40;99.90;;;;;;5091550;28;20396;-67
2022/05/24 02:13:45;;;;;;;19.77;13.07;;;14.40;99.90;;;;;;5091594;28;20408;-67
2022/05/24 02:16:16;;;;;;;18.70;13.30;;;14.60;99.90;;;;;;5091486;28;20036;-67
2022/05/24 02:18:46;;;;;;;18.38;13.70;;;14.60;99.90;;;;;;5091142;28;20040;-67
2022/05/24 02:21:11;;;;;;;21.30;14.55;;;14.60;99.90;;;;;;5091255;28;20046;-67
2022/05/24 02:23:43;;;;;;;31.20;16.27;;;14.60;99.90;;;;;;5091138;28;20119;-67
2022/05/24 02:26:11;;;;;;;25.55;16.27;;;14.60;99.90;;;;;;5091512;28;20497;-67
2022/05/24 02:28:37;;;;;;;25.88;16.85;;;14.60;99.90;;;;;;5090753;28;20044;-67
2022/05/24 02:31:17;;;;;;;27.45;16.92;;;14.60;99.90;;;;;;5091129;28;20047;-67
2022/05/24 02:33:45;;;;;;;29.75;18.10;;;14.60;99.90;;;;;;5091352;28;20066;-67
2022/05/24 02:36:12;;;;;;;23.08;16.90;;;14.70;99.90;;;;;;5091170;28;20052;-67
2022/05/24 02:38:38;;;;;;;28.35;18.20;;;14.60;99.90;;;;;;5090646;28;20513;-67
2022/05/24 02:43:48;;;;;;;29.10;19.40;;;14.60;99.90;;;;;;5091010;28;20071;-67
2022/05/24 02:46:16;;;;;;;28.40;18.98;;;14.60;99.90;;;;;;5090890;28;20490;-67
2022/05/24 02:48:42;;;;;;;33.00;20.17;;;14.60;99.90;;;;;;5090899;28;20043;-67
2022/05/24 02:51:09;;;;;;;28.75;20.05;;;14.60;99.90;;;;;;5091000;28;20040;-67
2022/05/24 02:53:36;;;;;;;29.48;21.33;;;14.60;99.90;;;;;;5090994;28;20529;-67
2022/05/24 02:56:03;;;;;;;34.95;21.05;;;14.60;99.90;;;;;;5090778;28;20518;-67
2022/05/24 02:58:29;;;;;;;28.80;19.65;;;14.60;99.90;;;;;;5090545;28;20036;-67
2022/05/24 03:00:54;;;;;;;28.13;20.00;;;14.50;99.90;;;;;;5090735;28;20039;-67
2022/05/24 03:03:20;;;;;;;27.63;20.45;;;14.50;99.90;;;;;;5091002;28;20158;-67
2022/05/24 03:05:46;;;;;;;29.70;20.38;;;14.60;99.90;;;;;;5090904;28;20052;-67
2022/05/24 03:10:55;;;;;;;27.05;20.15;;;14.70;99.90;;;;;;5090660;28;20044;-67
2022/05/24 03:16:13;;;;;;;27.40;20.45;;;14.70;99.90;;;;;;5090781;28;20123;-67
2022/05/24 03:18:40;;;;;;;30.90;20.45;;;14.70;99.90;;;;;;5090430;28;20051;-67
2022/05/24 03:21:06;;;;;;;33.75;21.23;;;14.70;99.90;;;;;;5090521;28;20040;-67
2022/05/24 03:23:32;;;;;;;34.38;21.15;;;14.60;99.90;;;;;;5090507;28;20088;-67
2022/05/24 03:25:58;;;;;;;31.30;22.40;;;14.60;99.90;;;;;;5090779;28;20040;-67
2022/05/24 03:28:23;;;;;;;30.80;21.88;;;14.80;99.90;;;;;;5090574;28;20515;-67
2022/05/24 03:30:49;;;;;;;28.83;21.10;;;14.70;99.90;;;;;;5090426;28;20044;-67
2022/05/24 03:33:15;;;;;;;30.80;21.23;;;14.70;99.90;;;;;;5090598;28;20040;-67
2022/05/24 03:35:41;;;;;;;29.67;22.33;;;14.70;99.90;;;;;;5090436;28;20050;-67
2022/05/24 03:38:07;;;;;;;31.55;21.88;;;14.80;99.90;;;;;;5090291;28;20039;-67
2022/05/24 03:40:33;;;;;;;32.70;22.67;;;14.80;99.90;;;;;;5092148;28;20135;-67
2022/05/24 03:42:59;;;;;;;35.75;22.88;;;14.80;99.90;;;;;;5091809;28;20028;-67
2022/05/24 03:45:26;;;;;;;35.25;22.55;;;14.70;99.90;;;;;;5094658;28;20513;-67
2022/05/24 03:47:51;;;;;;;30.42;21.35;;;14.80;99.90;;;;;;5093639;28;20044;-67
2022/05/24 03:50:18;;;;;;;34.30;23.05;;;14.80;99.90;;;;;;5093753;28;20046;-67
2022/05/24 03:52:44;;;;;;;30.52;21.55;;;14.80;99.90;;;;;;5093968;28;20124;-67
2022/05/24 03:55:09;;;;;;;32.67;22.08;;;14.80;99.90;;;;;;5094176;28;20092;-67
2022/05/24 04:00:22;;;;;;;33.63;20.88;;;14.80;99.90;;;;;;5093667;28;20040;-67
2022/05/24 04:02:48;;;;;;;30.20;21.27;;;14.80;99.90;;;;;;5094048;28;20047;-67
2022/05/24 04:05:14;;;;;;;28.52;20.25;;;14.80;99.90;;;;;;5093685;28;20048;-67
2022/05/24 04:07:40;;;;;;;31.98;21.70;;;14.80;99.90;;;;;;5094011;28;20040;-67
2022/05/24 04:10:08;;;;;;;27.55;19.55;;;14.80;99.90;;;;;;5093603;28;20048;-67
2022/05/24 04:12:34;;;;;;;28.95;20.45;;;14.80;99.90;;;;;;5093671;28;20492;-67
2022/05/24 04:15:00;;;;;;;27.35;19.90;;;14.90;99.90;;;;;;5093755;28;20074;-67
2022/05/24 04:17:26;;;;;;;33.00;20.25;;;14.90;99.90;;;;;;5093707;28;20089;-68
2022/05/24 04:19:52;;;;;;;30.65;20.67;;;14.90;99.90;;;;;;5093203;28;20459;-67
2022/05/24 04:22:17;;;;;;;27.45;21.10;;;14.90;99.90;;;;;;5093706;28;20039;-67
2022/05/24 04:24:43;;;;;;;27.25;20.45;;;14.80;99.90;;;;;;5093702;28;20473;-67
2022/05/24 04:27:09;;;;;;;31.00;22.05;;;14.90;99.90;;;;;;5093670;28;20036;-67
2022/05/24 04:29:37;;;;;;;36.75;21.63;;;14.80;99.90;;;;;;5093067;28;20040;-67
2022/05/24 04:32:03;;;;;;;33.47;21.23;;;14.80;99.90;;;;;;5093511;28;20075;-67
2022/05/24 04:34:28;;;;;;;29.90;20.88;;;14.80;99.90;;;;;;5093156;28;20040;-67
2022/05/24 04:36:54;;;;;;;32.80;21.80;;;14.80;99.90;;;;;;5093406;28;20036;-67
2022/05/24 04:39:19;;;;;;;31.42;21.40;;;14.80;99.90;;;;;;5092784;28;20036;-67
2022/05/24 04:44:29;;;;;;;34.22;21.67;;;14.80;99.90;;;;;;5093122;28;20054;-67
2022/05/24 04:47:07;;;;;;;34.65;22.42;;;14.90;99.90;;;;;;5092896;28;20119;-67
2022/05/24 04:49:37;;;;;;;35.30;22.27;;;14.90;99.90;;;;;;5092845;28;20119;-68
2022/05/24 04:52:04;;;;;;;33.05;22.88;;;14.90;99.90;;;;;;5092871;28;20051;-67
2022/05/24 04:54:29;;;;;;;33.38;23.15;;;14.90;99.90;;;;;;5092967;28;20130;-67
2022/05/24 04:56:55;;;;;;;32.50;21.65;;;14.90;99.90;;;;;;5092889;28;20115;-67
2022/05/24 04:59:20;;;;;;;35.67;20.75;;;14.90;99.90;;;;;;5092269;28;20054;-67
2022/05/24 05:01:46;;;;;;;36.67;19.92;;;14.90;99.90;;;;;;5092949;28;20072;-67
2022/05/24 05:04:12;;;;;;;37.28;20.77;;;14.90;99.90;;;;;;5092812;28;20115;-67
2022/05/24 05:06:42;;;;;;;33.40;19.02;;;14.80;99.90;;;;;;5092810;28;20039;-68
2022/05/24 05:09:09;;;;;;;29.30;19.08;;;14.70;99.90;;;;;;5092568;28;20024;-68
2022/05/24 05:11:35;;;;;;;30.73;17.13;;;14.70;99.90;;;;;;5092706;28;20032;-67
2022/05/24 05:14:01;;;;;;;30.33;16.63;;;14.70;99.90;;;;;;5092490;28;20035;-67
2022/05/24 05:16:26;;;;;;;27.50;16.05;;;14.70;99.90;;;;;;5092343;28;20036;-68
2022/05/24 05:18:52;;;;;;;25.60;16.58;;;14.70;99.90;;;;;;5092119;28;20054;-67
2022/05/24 05:21:17;;;;;;;29.38;16.58;;;14.70;99.90;;;;;;5092616;28;20111;-67
2022/05/24 05:23:43;;;;;;;27.80;16.83;;;14.70;99.90;;;;;;5092395;28;20036;-67
2022/05/24 05:26:08;;;;;;;28.05;16.55;;;14.70;99.90;;;;;;5092364;28;20115;-68
2022/05/24 05:28:34;;;;;;;27.70;15.25;;;14.60;99.90;;;;;;5091912;28;20040;-67
2022/05/24 05:31:22;;;;;;;25.88;16.25;;;14.60;99.90;;;;;;5092412;28;20036;-67
2022/05/24 05:33:49;;;;;;;28.90;16.00;;;14.60;99.90;;;;;;5092360;28;20047;-67
2022/05/24 05:36:16;;;;;;;25.63;16.20;;;14.70;99.90;;;;;;5091935;28;20488;-67
2022/05/24 05:38:45;;;;;;;27.90;15.55;;;14.70;99.90;;;;;;5091874;28;20062;-67
2022/05/24 05:41:13;;;;;;;28.98;15.93;;;14.70;99.90;;;;;;5091934;28;20051;-68
2022/05/24 05:43:39;;;;;;;25.77;15.65;;;14.70;99.90;;;;;;5092186;28;20044;-67
2022/05/24 05:46:05;;;;;;;27.83;16.75;;;14.70;99.90;;;;;;5092131;28;20040;-67
2022/05/24 05:48:30;;;;;;;24.70;15.98;;;14.70;99.90;;;;;;5091629;28;20480;-68
2022/05/24 05:50:56;;;;;;;26.00;16.52;;;14.70;99.90;;;;;;5091888;28;20040;-67
2022/05/24 05:53:22;;;;;;;29.23;16.55;;;14.70;99.90;;;;;;5091778;28;20130;-67
2022/05/24 05:55:47;;;;;;;29.67;16.73;;;14.70;99.90;;;;;;5091594;28;20535;-68
2022/05/24 05:58:13;;;;;;;30.75;18.30;;;14.60;99.90;;;;;;5091842;28;20036;-68
2022/05/24 06:00:40;;;;;;;36.42;17.58;;;14.60;99.90;;;;;;5091265;28;20071;-67
2022/05/24 06:03:06;;;;;;;25.60;16.60;;;14.70;99.90;;;;;;5091116;28;20044;-67
2022/05/24 06:05:32;;;;;;;29.75;17.83;;;14.70;99.90;;;;;;5091617;28;20063;-67
2022/05/24 06:07:58;;;;;;;31.95;17.77;;;14.70;99.90;;;;;;5091547;28;20036;-67
2022/05/24 06:10:25;;;;;;;29.27;18.50;;;14.70;99.90;;;;;;5091050;28;20047;-67
2022/05/24 06:12:51;;;;;;;32.22;18.25;;;14.80;99.90;;;;;;5091618;28;20051;-67
2022/05/24 06:15:17;;;;;;;28.67;18.52;;;14.70;99.90;;;;;;5091462;28;20040;-67
2022/05/24 06:17:47;;;;;;;25.13;16.88;;;14.70;99.90;;;;;;5091345;28;20548;-67
2022/05/24 06:20:13;;;;;;;28.15;17.73;;;14.70;99.90;;;;;;5091026;28;20028;-68
2022/05/24 06:22:38;;;;;;;29.48;17.42;;;14.70;99.90;;;;;;5091283;28;20431;-67
2022/05/24 06:25:05;;;;;;;29.10;17.60;;;14.70;99.90;;;;;;5091481;28;20067;-68
2022/05/24 06:27:30;;;;;;;27.33;17.90;;;14.70;99.90;;;;;;5091519;28;20051;-67
2022/05/24 06:29:56;;;;;;;31.27;17.20;;;14.70;99.90;;;;;;5090932;28;20040;-67
2022/05/24 06:32:22;;;;;;;30.33;17.75;;;14.80;99.90;;;;;;5091260;28;20071;-67
2022/05/24 06:34:48;;;;;;;28.35;16.95;;;14.70;99.90;;;;;;5090956;28;20492;-67
2022/05/24 06:37:15;;;;;;;26.55;16.55;;;14.70;99.90;;;;;;5091073;28;20036;-67
2022/05/24 06:39:41;;;;;;;31.75;16.02;;;14.60;99.90;;;;;;5090641;28;20480;-67
2022/05/24 06:42:07;;;;;;;25.88;15.55;;;14.70;99.90;;;;;;5091290;28;20036;-67
2022/05/24 06:44:33;;;;;;;26.17;17.20;;;14.70;99.90;;;;;;5091089;28;20122;-67
2022/05/24 06:46:58;;;;;;;26.98;15.68;;;14.70;99.90;;;;;;5091107;28;20075;-67
2022/05/24 06:49:24;;;;;;;23.23;15.68;;;14.70;99.90;;;;;;5090637;28;20086;-67
2022/05/24 06:51:49;;;;;;;25.30;15.30;;;14.70;99.90;;;;;;5090923;28;20516;-67
2022/05/24 06:54:15;;;;;;;24.65;14.77;;;14.70;99.90;;;;;;5091014;28;20455;-67
2022/05/24 06:56:40;;;;;;;29.05;15.80;;;14.70;99.90;;;;;;5091100;28;20066;-67
2022/05/24 07:04:34;;;;;;;23.13;14.32;;;14.70;99.90;;;;;;5091041;28;20056;-67
2022/05/24 07:07:00;;;;;;;22.55;14.38;;;14.70;99.90;;;;;;5091037;28;20044;-67
2022/05/24 07:09:29;;;;;;;29.05;14.43;;;14.70;99.90;;;;;;5090559;28;20101;-67
2022/05/24 07:11:55;;;;;;;20.42;13.75;;;14.70;99.90;;;;;;5090911;28;20040;-67
2022/05/24 07:14:21;;;;;;;23.25;14.10;;;14.70;99.90;;;;;;5092808;28;20622;-67
2022/05/24 07:16:46;;;;;;;18.55;13.15;;;14.60;99.90;;;;;;5094739;28;20036;-67
2022/05/24 07:19:12;;;;;;;20.92;13.63;;;14.60;99.90;;;;;;5094315;28;20118;-67
2022/05/24 07:21:37;;;;;;;22.15;12.82;;;14.60;99.90;;;;;;5094957;28;20506;-67
2022/05/24 07:24:03;;;;;;;21.60;13.43;;;14.50;99.90;;;;;;5094878;28;20122;-67
2022/05/24 07:26:29;;;;;;;21.75;13.27;;;14.50;99.90;;;;;;5094739;28;20075;-67
2022/05/24 07:28:54;;;;;;;23.73;13.02;;;14.60;99.90;;;;;;5094382;28;20053;-67
2022/05/24 07:31:20;;;;;;;24.60;13.60;;;14.50;99.90;;;;;;5094437;28;20393;-67
2022/05/24 07:33:46;;;;;;;22.83;13.73;;;14.60;99.90;;;;;;5094448;28;20043;-67
2022/05/24 07:36:11;;;;;;;22.77;12.38;;;14.70;99.90;;;;;;5094315;28;20099;-67
2022/05/24 07:38:38;;;;;;;23.90;13.02;;;14.60;99.90;;;;;;5094347;28;20043;-67
2022/05/24 07:46:32;;;;;;;22.88;12.90;;;14.70;99.90;;;;;;5094508;28;20067;-67
2022/05/24 07:48:58;;;;;;;19.25;12.32;;;14.70;99.90;;;;;;5094152;28;20031;-67
2022/05/24 07:51:24;;;;;;;21.10;12.93;;;14.60;99.90;;;;;;5094251;28;20056;-67
2022/05/24 07:53:50;;;;;;;19.27;12.05;;;14.60;99.90;;;;;;5094164;28;20527;-67
2022/05/24 07:56:15;;;;;;;22.63;12.15;;;14.60;99.90;;;;;;5093946;28;20052;-67
2022/05/24 07:58:43;;;;;;;17.88;11.48;;;14.60;99.90;;;;;;5093680;28;20170;-67
2022/05/24 08:01:10;;;;;;;21.30;11.65;;;14.70;99.90;;;;;;5093734;28;20036;-67
2022/05/24 08:03:36;;;;;;;17.75;11.38;;;14.60;99.90;;;;;;5094198;28;20040;-68
2022/05/24 08:06:02;;;;;;;20.85;11.70;;;14.60;99.90;;;;;;5093869;28;20488;-67
2022/05/24 08:08:28;;;;;;;19.52;11.52;;;14.60;99.90;;;;;;5093745;28;20123;-67
2022/05/24 08:10:53;;;;;;;19.35;12.20;;;14.70;99.90;;;;;;5093968;28;20481;-67
2022/05/24 08:13:19;;;;;;;23.80;11.38;;;14.90;99.90;;;;;;5093707;28;20040;-67
2022/05/24 08:15:46;;;;;;;17.52;11.23;;;14.80;99.90;;;;;;5093894;28;20036;-67
2022/05/24 08:18:12;;;;;;;18.25;11.25;;;14.90;99.90;;;;;;5093871;28;20124;-67
2022/05/24 08:20:39;;;;;;;18.70;10.68;;;15.00;99.90;;;;;;5093358;28;20115;-67
2022/05/24 08:23:05;;;;;;;14.00;9.65;;;15.00;99.90;;;;;;5093780;28;20047;-67
2022/05/24 08:25:32;;;;;;;13.48;10.45;;;15.00;99.90;;;;;;5092980;28;20040;-67
2022/05/24 08:28:02;;;;;;;18.08;10.95;;;15.00;99.90;;;;;;5093761;28;20119;-67
2022/05/24 08:30:29;;;;;;;17.05;10.35;;;15.00;99.90;;;;;;5093098;28;20601;-67
2022/05/24 08:32:56;;;;;;;15.73;9.77;;;15.00;99.90;;;;;;5093473;28;20054;-67
2022/05/24 08:35:22;;;;;;;18.05;9.35;;;15.00;99.90;;;;;;5093352;28;20052;-67
2022/05/24 08:37:48;;;;;;;15.90;10.13;;;15.00;99.90;;;;;;5093205;28;20039;-67
2022/05/24 08:40:18;;;;;;;14.68;9.02;;;15.10;99.90;;;;;;5092842;28;20089;-67
2022/05/24 08:42:57;;;;;;;12.18;9.68;;;15.10;99.90;;;;;;5093486;28;20031;-68
2022/05/24 08:48:38;;;;;;;21.13;10.80;;;15.40;99.90;;;;;;5093294;28;20056;-67
2022/05/24 08:51:19;;;;;;;19.23;10.13;;;15.50;99.90;;;;;;5078607;28;20052;-67
2022/05/24 08:53:47;;;;;;;14.48;8.00;;;15.50;99.90;;;;;;5093079;28;20711;-67
2022/05/24 08:56:21;;;;;;;11.38;7.70;;;15.60;99.90;;;;;;5093102;28;20043;-67
2022/05/24 08:58:50;;;;;;;14.52;6.82;;;15.80;99.90;;;;;;5092744;28;20046;-67
2022/05/24 09:01:23;;;;;;;12.13;6.63;;;15.60;99.90;;;;;;5092831;28;20047;-67
2022/05/24 09:03:49;;;;;;;12.48;6.88;;;15.70;99.90;;;;;;5093112;28;20074;-67
2022/05/24 09:06:38;;;;;;;9.43;6.05;;;15.90;99.90;;;;;;5092872;28;20068;-67
2022/05/24 09:09:28;;;;;;;9.93;6.40;;;16.10;99.90;;;;;;5092536;28;20048;-67
2022/05/24 09:12:21;;;;;;;14.48;5.80;;;16.20;99.90;;;;;;5092954;28;20456;-67
2022/05/24 09:15:10;;;;;;;7.90;6.13;;;16.40;99.90;;;;;;5092576;28;20051;-67
2022/05/24 09:18:17;;;;;;;11.45;6.07;;;16.40;99.90;;;;;;5092567;28;20044;-68
2022/05/24 09:20:44;;;;;;;13.18;5.38;;;16.30;99.90;;;;;;5092500;28;20093;-67
2022/05/24 09:23:35;;;;;;;9.20;5.60;;;16.30;99.90;;;;;;5092610;28;20412;-67
2022/05/24 09:26:07;;;;;;;8.55;5.80;;;16.20;99.90;;;;;;5092499;28;20039;-68
2022/05/24 09:28:46;;;;;;;9.93;5.78;;;16.30;99.90;;;;;;5092327;28;20459;-67
2022/05/24 09:31:25;;;;;;;13.23;5.53;;;16.20;99.90;;;;;;5092486;28;20101;-67
2022/05/24 09:34:00;;;;;;;8.93;5.07;;;16.30;99.90;;;;;;5092446;28;20122;-67
2022/05/24 09:36:33;;;;;;;9.18;5.30;;;16.30;99.90;;;;;;5091920;28;20059;-67
2022/05/24 09:38:59;;;;;;;7.53;5.13;;;16.20;99.90;;;;;;5091587;28;20111;-67
2022/05/24 09:41:25;;;;;;;8.30;4.18;;;16.10;99.90;;;;;;5092211;28;20039;-68
2022/05/24 09:44:12;;;;;;;10.90;5.60;;;16.10;99.90;;;;;;5092151;28;20520;-67
2022/05/24 09:46:39;;;;;;;12.90;5.22;;;16.10;99.90;;;;;;5092144;28;20118;-68
2022/05/24 09:49:26;;;;;;;8.93;5.32;;;16.10;99.90;;;;;;5091611;28;20489;-67
2022/05/24 09:51:56;;;;;;;12.70;5.80;;;15.90;99.90;;;;;;5090956;28;20051;-68
2022/05/24 09:54:26;;;;;;;8.07;5.15;;;15.90;99.90;;;;;;5091891;28;20089;-67
2022/05/24 09:57:10;;;;;;;7.07;4.55;;;15.90;99.90;;;;;;5091835;28;20050;-67
2022/05/24 09:59:40;;;;;;;10.45;5.00;;;15.90;99.90;;;;;;5091268;28;20127;-68
2022/05/24 10:02:26;;;;;;;10.02;5.13;;;15.90;99.90;;;;;;5091865;28;20039;-67
2022/05/24 10:04:52;;;;;;;7.07;4.53;;;15.90;99.90;;;;;;5092049;28;20118;-67
2022/05/24 10:07:30;;;;;;;8.38;4.72;;;15.90;99.90;;;;;;5091724;28;20520;-68
2022/05/24 10:10:18;;;;;;;12.15;5.80;;;16.00;99.90;;;;;;5091193;28;20054;-67
2022/05/24 10:12:52;;;;;;;6.30;5.00;;;16.10;99.90;;;;;;5091637;28;20043;-68
2022/05/24 10:15:27;;;;;;;6.10;4.15;;;16.10;99.90;;;;;;5091526;28;20066;-68
2022/05/24 10:18:32;;;;;;;10.63;5.00;;;16.10;99.90;;;;;;5091394;28;20054;-67
2022/05/24 10:21:12;;;;;;;5.28;4.35;;;16.20;99.90;;;;;;5091581;28;20104;-67
2022/05/24 10:24:01;;;;;;;3.28;2.58;;;16.10;99.90;;;;;;5091418;28;20637;-67
2022/05/24 10:26:50;;;;;;;3.13;1.70;;;16.20;99.90;;;;;;5091214;28;20047;-68
2022/05/24 10:29:36;;;;;;;2.58;1.60;;;16.40;99.90;;;;;;5091168;28;20044;-67
2022/05/24 10:38:17;;;;;;;5.07;2.20;;;16.40;99.90;;;;;;5091248;28;20044;-67
2022/05/24 10:38:18;;;;;;;3.25;2.08;;;16.20;99.90;;;;;;5091361;28;20411;-67
2022/05/24 10:41:04;;;;;;;3.15;1.70;;;15.90;99.90;;;;;;5090990;28;20111;-67
2022/05/24 10:43:53;;;;;;;1.70;1.35;;;15.70;99.90;;;;;;5091336;28;20397;-67
2022/05/24 10:46:45;;;;;;;2.38;1.50;;;15.40;99.90;;;;;;5091249;28;20089;-67
2022/05/24 10:49:33;;;;;;;2.88;1.27;;;15.30;99.90;;;;;;5090454;28;20056;-67
2022/05/24 10:52:11;;;;;;;2.95;1.33;;;15.00;99.90;;;;;;5091251;28;20078;-67
2022/05/24 10:54:58;;;;;;;1.73;1.33;;;15.00;99.90;;;;;;5090960;28;20044;-68
2022/05/24 10:57:38;;;;;;;2.10;1.50;;;15.20;99.90;;;;;;5090975;28;20037;-67
2022/05/24 11:00:12;;;;;;;2.65;2.03;;;15.40;99.90;;;;;;5090635;28;20044;-67
2022/05/24 11:02:53;;;;;;;5.25;2.30;;;15.50;99.90;;;;;;5091040;28;20124;-67
2022/05/24 11:05:29;;;;;;;5.85;2.60;;;15.50;99.90;;;;;;5090906;28;20534;-67
2022/05/24 11:08:18;;;;;;;3.67;2.30;;;15.50;99.90;;;;;;5090850;28;20110;-67
2022/05/24 11:10:47;;;;;;;7.25;2.40;;;15.50;99.90;;;;;;5076137;28;20048;-67
2022/05/24 11:13:19;;;;;;;2.55;2.00;;;15.40;99.90;;;;;;5090864;28;20052;-66
2022/05/24 11:15:51;;;;;;;3.33;1.40;;;15.40;99.90;;;;;;5090654;28;20602;-67
2022/05/24 11:18:20;;;;;;;2.70;0.98;;;15.40;99.90;;;;;;5090594;28;20040;-67
2022/05/24 11:20:52;;;;;;;4.82;1.20;;;15.30;99.90;;;;;;5090367;28;20399;-67
2022/05/24 11:23:24;;;;;;;1.48;1.10;;;15.20;99.90;;;;;;5090820;28;20063;-66
2022/05/24 11:25:55;;;;;;;;;;;15.00;99.90;;;;;;5091229;28;20047;-66
2022/05/24 11:28:30;;;;;;;1.58;1.15;;;14.90;99.90;;;;;;5090592;28;19916;-66
2022/05/24 11:31:22;;;;;;;3.67;1.08;;;14.80;99.90;;;;;;5090470;28;20500;-67
2022/05/24 11:33:48;;;;;;;1.33;0.98;;;15.00;99.90;;;;;;5090856;28;20120;-66
2022/05/24 11:36:33;;;;;;;3.80;1.52;;;14.80;99.90;;;;;;5090627;28;20072;-66
2022/05/24 11:39:25;;;;;;;5.32;2.08;;;14.80;99.90;;;;;;5090247;28;20442;-67
2022/05/24 11:42:43;;;;;;;3.00;1.90;;;14.80;99.90;;;;;;5090546;28;20392;-67
2022/05/24 11:45:31;;;;;;;3.20;1.67;;;14.50;99.90;;;;;;5090489;28;20040;-67
2022/05/24 11:48:06;;;;;;;2.20;2.00;;;14.60;99.90;;;;;;5090655;28;20412;-67
2022/05/24 11:50:31;;;;;;;4.93;2.10;;;14.60;99.90;;;;;;5090247;28;20044;-67
2022/05/24 11:53:15;;;;;;;4.72;2.30;;;14.70;99.90;;;;;;5090510;28;20470;-67
2022/05/24 11:55:45;;;;;;;7.47;2.25;;;14.70;99.90;;;;;;5090320;28;20143;-67
2022/05/24 11:58:20;;;;;;;6.53;2.35;;;14.90;99.90;;;;;;5090272;28;20044;-67
2022/05/24 12:00:57;;;;;;;5.53;2.70;;;14.90;99.90;;;;;;5091005;28;20036;-67
2022/05/24 12:09:21;;;;;;;5.22;2.70;;;14.80;99.90;;;;;;5093849;28;20055;-67
2022/05/24 12:11:48;;;;;;;5.38;3.00;;;14.90;99.90;;;;;;5094047;28;20051;-67
2022/05/24 12:14:33;;;;;;;4.53;2.30;;;14.80;99.90;;;;;;5093952;28;20036;-67
2022/05/24 12:17:02;;;;;;;4.90;2.40;;;14.80;99.90;;;;;;5093762;28;20044;-67
2022/05/24 12:19:42;;;;;;;4.22;2.33;;;15.00;99.90;;;;;;5093535;28;20085;-67
2022/05/24 12:22:20;;;;;;;4.72;2.30;;;15.10;99.90;;;;;;5093825;28;20046;-67
2022/05/24 12:24:51;;;;;;;3.03;2.42;;;15.30;99.90;;;;;;5093583;28;20040;-67
2022/05/24 12:27:53;;;;;;;5.80;2.60;;;15.40;99.90;;;;;;5093568;28;20040;-67
2022/05/24 12:30:18;;;;;;;5.22;2.78;;;15.50;99.90;;;;;;5093298;28;20040;-67
2022/05/24 12:32:44;;;;;;;5.13;2.30;;;15.60;99.90;;;;;;5093563;28;20054;-67
2022/05/24 12:35:14;;;;;;;3.35;2.00;;;15.70;99.90;;;;;;5093288;28;20036;-67
2022/05/24 12:37:52;;;;;;;6.13;2.10;;;15.60;99.90;;;;;;5093312;28;20040;-67
2022/05/24 12:40:30;;;;;;;4.13;2.10;;;15.60;99.90;;;;;;5093165;28;20084;-67
2022/05/24 12:43:00;;;;;;;4.13;2.10;;;15.70;99.90;;;;;;5093311;28;20040;-67
2022/05/24 12:45:28;;;;;;;5.38;2.50;;;15.60;99.90;;;;;;5093390;28;20047;-67
2022/05/24 12:47:54;;;;;;;3.08;1.98;;;15.80;99.90;;;;;;5093222;28;20495;-67
2022/05/24 12:50:43;;;;;;;2.78;1.85;;;15.90;99.90;;;;;;5093305;28;20499;-67
2022/05/24 12:53:12;;;;;;;2.95;2.30;;;16.00;99.90;;;;;;5093311;28;20039;-67
2022/05/24 12:55:56;;;;;;;3.35;1.98;;;16.20;99.90;;;;;;5092951;28;20496;-67
2022/05/24 12:58:29;;;;;;;2.92;2.30;;;16.20;99.90;;;;;;5092999;28;20047;-67
2022/05/24 13:01:22;;;;;;;2.83;2.05;;;16.20;99.90;;;;;;5092910;28;20412;-67
2022/05/24 13:04:19;;;;;;;5.90;2.10;;;16.20;99.90;;;;;;5093025;28;20044;-67
2022/05/24 13:06:46;;;;;;;3.33;1.98;;;16.30;99.90;;;;;;5092866;28;20039;-67
2022/05/24 13:09:18;;;;;;;2.10;1.90;;;16.20;99.90;;;;;;5092402;28;20484;-68
2022/05/24 13:11:50;;;;;;;2.37;1.30;;;16.50;99.90;;;;;;5092855;28;20047;-67
2022/05/24 13:14:28;;;;;;;;;;;16.60;99.90;;;;;;5093216;28;20289;-67
2022/05/24 13:16:54;;;;;;;1.30;1.08;;;16.70;99.90;;;;;;5092652;28;19973;-68
2022/05/24 13:19:20;;;;;;;2.88;1.40;;;16.80;99.90;;;;;;5092166;28;20106;-68
2022/05/24 13:21:54;;;;;;;2.95;1.38;;;16.80;99.90;;;;;;5092794;28;20047;-68
2022/05/24 13:24:20;;;;;;;4.72;1.33;;;16.80;99.90;;;;;;5092710;28;20136;-68
2022/05/24 13:27:00;;;;;;;2.00;1.30;;;17.10;99.90;;;;;;5092599;28;20119;-68
2022/05/24 13:29:29;;;;;;;3.67;1.27;;;17.10;99.90;;;;;;5092058;28;20044;-67
2022/05/24 13:34:58;;;;;;;3.13;1.17;;;17.30;99.90;;;;;;5092343;28;20075;-68
2022/05/24 13:37:26;;;;;;;1.80;1.00;;;17.30;99.90;;;;;;5092417;28;20036;-68
2022/05/24 13:39:53;;;;;;;2.00;1.25;;;17.30;99.90;;;;;;5091887;28;20749;-68
2022/05/24 13:42:27;;;;;;;2.63;1.30;;;17.30;99.90;;;;;;5092076;28;20082;-67